createdAt,value
2022-10-11T00:01:02.756Z,101653.41
2022-10-11T00:03:30.918Z,101655.53
2022-10-11T00:05:58.000Z,101659.25
2022-10-11T00:08:27.948Z,101665.50
2022-10-11T00:11:06.515Z,101670.91
2022-10-11T00:13:34.289Z,101675.13
2022-10-11T00:16:14.255Z,101673.75
2022-10-11T00:18:42.108Z,101673.66
2022-10-11T00:21:13.654Z,101673.28
2022-10-11T00:23:43.338Z,101681.22
2022-10-11T00:26:13.965Z,101676.19
2022-10-11T00:28:45.784Z,101676.69
2022-10-11T00:31:16.266Z,101672.75
2022-10-11T00:33:43.400Z,101683.22
2022-10-11T00:36:17.440Z,101693.38
2022-10-11T00:38:45.532Z,101685.31
2022-10-11T00:41:15.402Z,101690.00
2022-10-11T00:43:44.950Z,101686.06
2022-10-11T00:46:30.828Z,101687.47
2022-10-11T00:49:05.886Z,101696.47
2022-10-11T00:51:53.773Z,101694.28
2022-10-11T00:54:26.045Z,101697.00
2022-10-11T00:57:07.580Z,101699.84
2022-10-11T00:59:41.517Z,101699.25
2022-10-11T01:02:10.436Z,101710.38
2022-10-11T01:04:40.566Z,101704.66
2022-10-11T01:07:11.294Z,101714.28
2022-10-11T01:09:40.421Z,101706.16
2022-10-11T01:12:23.279Z,101722.00
2022-10-11T01:15:00.060Z,101716.69
2022-10-11T01:17:59.205Z,101712.97
2022-10-11T01:20:57.242Z,101726.25
2022-10-11T01:24:10.573Z,101726.47
2022-10-11T01:27:01.509Z,101729.03
2022-10-11T01:29:47.172Z,101732.03
2022-10-11T01:32:24.884Z,101735.88
2022-10-11T01:35:32.736Z,101733.59
2022-10-11T01:38:46.962Z,101729.91
2022-10-11T01:41:39.289Z,101739.31
2022-10-11T01:44:13.524Z,101737.59
2022-10-11T01:46:41.371Z,101747.59
2022-10-11T01:49:09.661Z,101741.06
2022-10-11T01:51:46.371Z,101745.91
2022-10-11T01:54:44.133Z,101754.75
2022-10-11T01:57:46.980Z,101755.75
2022-10-11T02:00:21.877Z,101744.34
2022-10-11T02:03:16.179Z,101749.22
2022-10-11T02:06:14.686Z,101753.38
2022-10-11T02:09:08.285Z,101749.34
2022-10-11T02:11:39.365Z,101757.78
2022-10-11T02:14:14.793Z,101758.94
2022-10-11T02:16:58.571Z,101758.19
2022-10-11T02:19:35.541Z,101755.06
2022-10-11T02:22:16.029Z,101763.88
2022-10-11T02:24:50.882Z,101770.69
2022-10-11T02:27:26.008Z,101771.56
2022-10-11T02:29:58.462Z,101774.13
2022-10-11T02:32:29.126Z,101766.16
2022-10-11T02:35:01.070Z,101764.09
2022-10-11T02:37:50.943Z,101766.09
2022-10-11T02:40:40.205Z,101766.22
2022-10-11T02:43:24.627Z,101766.16
2022-10-11T02:45:58.677Z,101770.06
2022-10-11T02:48:31.539Z,101769.88
2022-10-11T02:51:03.908Z,101776.00
2022-10-11T02:53:31.089Z,101790.44
2022-10-11T02:56:00.550Z,101783.25
2022-10-11T02:58:29.525Z,101797.03
2022-10-11T03:00:56.426Z,101787.91
2022-10-11T03:03:25.347Z,101789.03
2022-10-11T03:06:00.045Z,101793.63
2022-10-11T03:08:29.630Z,101797.19
2022-10-11T03:10:58.619Z,101792.19
2022-10-11T03:13:28.356Z,101791.88
2022-10-11T03:16:03.239Z,101800.06
2022-10-11T03:18:31.492Z,101798.19
2022-10-11T03:21:02.956Z,101802.16
2022-10-11T03:23:32.839Z,101811.03
2022-10-11T03:25:59.671Z,101815.75
2022-10-11T03:28:26.760Z,101811.91
2022-10-11T03:30:57.043Z,101819.91
2022-10-11T03:33:23.858Z,101827.00
2022-10-11T03:35:50.758Z,101828.72
2022-10-11T03:38:21.935Z,101825.28
2022-10-11T03:40:51.880Z,101830.41
2022-10-11T03:43:23.956Z,101822.72
2022-10-11T03:45:50.795Z,101828.41
2022-10-11T03:48:17.587Z,101828.69
2022-10-11T03:50:51.280Z,101831.69
2022-10-11T03:53:18.097Z,101819.00
2022-10-11T03:55:45.450Z,101835.41
2022-10-11T03:58:15.035Z,101837.81
2022-10-11T04:00:43.359Z,101840.66
2022-10-11T04:03:10.205Z,101842.84
2022-10-11T04:05:39.347Z,101854.41
2022-10-11T04:08:12.107Z,101849.81
2022-10-11T04:10:40.101Z,101857.25
2022-10-11T04:13:07.436Z,101857.81
2022-10-11T04:15:34.457Z,101871.47
2022-10-11T04:18:04.667Z,101870.31
2022-10-11T04:20:31.717Z,101873.59
2022-10-11T04:23:01.208Z,101882.47
2022-10-11T04:25:30.674Z,101880.03
2022-10-11T04:28:00.643Z,101883.59
2022-10-11T04:30:33.992Z,101897.75
2022-10-11T04:33:01.023Z,101890.31
2022-10-11T04:35:31.417Z,101896.59
2022-10-11T04:38:00.865Z,101898.00
2022-10-11T04:40:27.772Z,101895.56
2022-10-11T04:43:01.930Z,101904.75
2022-10-11T04:45:28.895Z,101901.16
2022-10-11T04:47:58.230Z,101908.41
2022-10-11T04:50:26.371Z,101905.69
2022-10-11T04:52:58.262Z,101913.94
2022-10-11T04:55:25.180Z,101924.19
2022-10-11T04:57:52.065Z,101915.84
2022-10-11T05:00:21.957Z,101916.47
2022-10-11T05:02:48.839Z,101921.69
2022-10-11T05:05:17.713Z,101934.25
2022-10-11T05:07:46.848Z,101930.81
2022-10-11T05:10:13.811Z,101937.53
2022-10-11T05:12:40.716Z,101955.66
2022-10-11T05:15:08.779Z,101949.38
2022-10-11T05:17:35.955Z,101944.13
2022-10-11T05:20:02.819Z,101943.38
2022-10-11T05:22:29.702Z,101946.97
2022-10-11T05:24:56.554Z,101944.53
2022-10-11T05:27:25.924Z,101945.00
2022-10-11T05:29:55.778Z,101947.13
2022-10-11T05:32:25.630Z,101953.41
2022-10-11T05:34:54.597Z,101958.66
2022-10-11T05:37:24.345Z,101954.09
2022-10-11T05:39:51.202Z,101965.25
2022-10-11T05:42:18.029Z,101966.22
2022-10-11T05:44:44.812Z,101975.72
2022-10-11T05:47:14.679Z,101978.41
2022-10-11T05:49:41.478Z,101992.44
2022-10-11T05:52:10.411Z,101991.75
2022-10-11T05:54:37.195Z,101991.09
2022-10-11T05:57:04.210Z,101994.44
2022-10-11T05:59:31.641Z,102000.41
2022-10-11T06:01:58.527Z,102011.19
2022-10-11T06:04:25.393Z,102009.66
2022-10-11T06:06:55.251Z,102008.28
2022-10-11T06:09:24.295Z,102015.09
2022-10-11T06:11:51.101Z,102005.66
2022-10-11T06:14:20.296Z,102002.81
2022-10-11T06:16:47.175Z,102002.16
2022-10-11T06:19:16.956Z,102014.59
2022-10-11T06:21:46.698Z,102014.47
2022-10-11T06:24:16.170Z,102010.03
2022-10-11T06:26:54.475Z,102019.56
2022-10-11T06:29:22.503Z,102024.34
2022-10-11T06:31:49.631Z,102031.19
2022-10-11T06:34:16.574Z,102024.97
2022-10-11T06:36:45.995Z,102028.88
2022-10-11T06:39:15.341Z,102039.78
2022-10-11T06:41:46.707Z,102039.56
2022-10-11T06:44:15.032Z,102039.16
2022-10-11T06:46:41.904Z,102040.44
2022-10-11T06:49:08.769Z,102042.72
2022-10-11T06:51:35.750Z,102036.84
2022-10-11T06:54:03.440Z,102036.72
2022-10-11T06:56:31.789Z,102033.56
2022-10-11T06:58:59.803Z,102046.72
2022-10-11T07:01:27.393Z,102041.94
2022-10-11T07:03:56.028Z,102058.28
2022-10-11T07:06:27.045Z,102058.59
2022-10-11T07:08:57.443Z,102059.53
2022-10-11T07:11:28.010Z,102051.06
2022-10-11T07:13:58.779Z,102057.06
2022-10-11T07:16:26.684Z,102059.50
2022-10-11T07:19:00.184Z,102064.22
2022-10-11T07:21:29.524Z,102062.41
2022-10-11T07:24:00.821Z,102064.47
2022-10-11T07:26:32.418Z,102068.44
2022-10-11T07:29:04.460Z,102065.72
2022-10-11T07:31:31.841Z,102070.81
2022-10-11T07:33:58.801Z,102074.03
2022-10-11T07:36:26.109Z,102077.53
2022-10-11T07:38:56.023Z,102085.16
2022-10-11T07:41:24.935Z,102092.19
2022-10-11T07:43:52.066Z,102085.72
2022-10-11T07:46:21.173Z,102091.34
2022-10-11T07:48:50.295Z,102097.53
2022-10-11T07:51:21.521Z,102098.75
2022-10-11T07:53:55.398Z,102103.09
2022-10-11T07:56:29.904Z,102093.94
2022-10-11T07:59:03.486Z,102095.13
2022-10-11T08:01:33.986Z,102101.69
2022-10-11T08:04:00.989Z,102107.56
2022-10-11T08:06:32.428Z,102098.56
2022-10-11T08:09:01.070Z,102103.72
2022-10-11T08:11:35.090Z,102103.50
2022-10-11T08:14:08.700Z,102105.56
2022-10-11T08:16:37.607Z,102112.16
2022-10-11T08:19:06.120Z,102114.28
2022-10-11T08:21:35.990Z,102108.97
2022-10-11T08:24:04.443Z,102114.13
2022-10-11T08:26:37.131Z,102112.75
2022-10-11T08:29:05.048Z,102109.81
2022-10-11T08:31:33.971Z,102119.38
2022-10-11T08:34:01.195Z,102117.59
2022-10-11T08:36:28.060Z,102126.75
2022-10-11T08:38:54.877Z,102120.09
2022-10-11T08:41:43.315Z,102123.16
2022-10-11T08:44:58.690Z,102118.56
2022-10-11T08:47:38.022Z,102118.72
2022-10-11T08:50:17.856Z,102130.00
2022-10-11T08:53:06.987Z,102125.22
2022-10-11T08:55:50.940Z,102133.03
2022-10-11T08:58:24.632Z,102131.19
2022-10-11T09:00:58.612Z,102130.88
2022-10-11T09:03:46.802Z,102140.31
2022-10-11T09:06:43.960Z,102140.25
2022-10-11T09:09:24.612Z,102140.97
2022-10-11T09:12:19.949Z,102151.13
2022-10-11T09:15:14.615Z,102147.97
2022-10-11T09:18:15.928Z,102149.75
2022-10-11T09:21:00.904Z,102153.22
2022-10-11T09:24:06.478Z,102151.38
2022-10-11T09:26:50.017Z,102155.81
2022-10-11T09:29:40.419Z,102150.47
2022-10-11T09:32:16.291Z,102153.38
2022-10-11T09:34:45.990Z,102155.34
2022-10-11T09:37:38.479Z,102155.94
2022-10-11T09:40:35.985Z,102145.94
2022-10-11T09:43:02.832Z,102145.44
2022-10-11T09:45:29.734Z,102154.38
2022-10-11T09:48:03.059Z,102154.44
2022-10-11T09:50:32.850Z,102154.00
2022-10-11T09:53:07.804Z,102145.16
2022-10-11T09:55:53.477Z,102165.94
2022-10-11T09:58:26.274Z,102156.69
2022-10-11T10:01:11.942Z,102152.38
2022-10-11T10:03:46.136Z,102152.63
2022-10-11T10:06:29.319Z,102160.25
2022-10-11T10:09:30.134Z,102162.69
2022-10-11T10:11:57.903Z,102151.94
2022-10-11T10:14:29.087Z,102166.69
2022-10-11T10:17:04.750Z,102157.78
2022-10-11T10:19:48.845Z,102164.94
2022-10-11T10:22:28.490Z,102169.72
2022-10-11T10:24:57.629Z,102168.81
2022-10-11T10:27:27.384Z,102166.47
2022-10-11T10:30:09.808Z,102167.03
2022-10-11T10:32:52.197Z,102174.41
2022-10-11T10:35:40.874Z,102173.91
2022-10-11T10:38:16.602Z,102178.28
2022-10-11T10:41:01.914Z,102174.53
2022-10-11T10:43:34.273Z,102168.19
2022-10-11T10:46:30.676Z,102175.31
2022-10-11T10:52:24.076Z,102175.75
2022-10-11T10:55:06.812Z,102179.34
2022-10-11T10:57:37.012Z,102178.66
2022-10-11T11:00:24.747Z,102181.56
2022-10-11T11:02:57.854Z,102180.31
2022-10-11T11:05:59.519Z,102178.09
2022-10-11T11:08:32.412Z,102178.00
2022-10-11T11:11:42.395Z,102175.22
2022-10-11T11:14:44.015Z,102172.97
2022-10-11T11:17:50.386Z,102174.16
2022-10-11T11:20:51.360Z,102177.88
2022-10-11T11:23:48.311Z,102173.88
2022-10-11T11:26:35.285Z,102176.81
2022-10-11T11:29:33.499Z,102178.66
2022-10-11T11:32:18.650Z,102173.41
2022-10-11T11:35:32.285Z,102168.56
2022-10-11T11:38:28.557Z,102167.34
2022-10-11T11:41:02.759Z,102167.50
2022-10-11T11:43:38.864Z,102173.56
2022-10-11T11:46:17.363Z,102162.38
2022-10-11T11:48:44.959Z,102167.16
2022-10-11T11:51:21.717Z,102167.59
2022-10-11T11:54:05.042Z,102172.38
2022-10-11T11:56:53.489Z,102172.91
2022-10-11T11:59:45.870Z,102161.75
2022-10-11T12:02:45.278Z,102167.53
2022-10-11T12:05:17.095Z,102158.41
2022-10-11T12:07:58.875Z,102161.91
2022-10-11T12:10:56.089Z,102167.66
2022-10-11T12:13:36.367Z,102164.53
2022-10-11T12:16:14.207Z,102165.56
2022-10-11T12:18:51.319Z,102157.56
2022-10-11T12:21:43.945Z,102159.69
2022-10-11T12:24:23.377Z,102152.78
2022-10-11T12:26:56.666Z,102159.41
2022-10-11T12:29:48.318Z,102160.16
2022-10-11T12:32:38.547Z,102159.16
2022-10-11T12:35:30.700Z,102166.25
2022-10-11T12:38:31.364Z,102162.47
2022-10-11T12:41:13.297Z,102156.97
2022-10-11T12:43:53.282Z,102162.16
2022-10-11T12:46:29.267Z,102161.22
2022-10-11T12:49:29.694Z,102162.41
2022-10-11T12:52:08.453Z,102154.28
2022-10-11T12:55:13.074Z,102154.91
2022-10-11T12:58:17.402Z,102149.41
2022-10-11T13:01:04.217Z,102148.75
2022-10-11T13:03:42.835Z,102142.00
2022-10-11T13:06:27.940Z,102137.63
2022-10-11T13:09:21.333Z,102148.53
2022-10-11T13:12:06.767Z,102141.63
2022-10-11T13:14:42.901Z,102145.69
2022-10-11T13:17:32.346Z,102142.78
2022-10-11T13:20:18.171Z,102134.06
2022-10-11T13:22:50.331Z,102136.84
2022-10-11T13:25:31.315Z,102139.03
2022-10-11T13:28:01.195Z,102136.56
2022-10-11T13:30:36.382Z,102140.59
2022-10-11T13:33:17.514Z,102140.03
2022-10-11T13:35:47.447Z,102139.06
2022-10-11T13:38:30.653Z,102137.19
2022-10-11T13:41:02.308Z,102146.28
2022-10-11T13:43:33.465Z,102143.34
2022-10-11T13:46:05.253Z,102141.34
2022-10-11T13:48:39.784Z,102147.09
2022-10-11T13:51:16.881Z,102150.50
2022-10-11T13:54:11.724Z,102150.31
2022-10-11T13:56:50.937Z,102150.25
2022-10-11T13:59:25.632Z,102157.81
2022-10-11T14:02:00.001Z,102151.56
2022-10-11T14:04:29.947Z,102159.72
2022-10-11T14:07:03.165Z,102146.50
2022-10-11T14:09:39.376Z,102156.59
2022-10-11T14:12:44.424Z,102149.34
2022-10-11T14:15:31.793Z,102151.63
2022-10-11T14:18:01.859Z,102151.38
2022-10-11T14:20:42.609Z,102145.22
2022-10-11T14:23:14.251Z,102142.22
2022-10-11T14:25:44.183Z,102142.91
2022-10-11T14:28:13.444Z,102142.72
2022-10-11T14:30:44.310Z,102135.41
2022-10-11T14:33:14.278Z,102136.13
2022-10-11T14:35:43.307Z,102136.78
2022-10-11T14:38:15.031Z,102135.19
2022-10-11T14:40:44.135Z,102134.19
2022-10-11T14:43:13.469Z,102136.34
2022-10-11T14:46:24.173Z,102137.59
2022-10-11T14:48:56.012Z,102135.44
2022-10-11T14:51:33.913Z,102129.91
2022-10-11T14:54:00.804Z,102141.09
2022-10-11T14:56:27.626Z,102140.16
2022-10-11T14:58:56.811Z,102146.41
2022-10-11T15:01:23.761Z,102141.00
2022-10-11T15:03:50.819Z,102139.72
2022-10-11T15:06:29.618Z,102145.50
2022-10-11T15:08:56.577Z,102147.13
2022-10-11T15:11:24.136Z,102141.81
2022-10-11T15:13:55.794Z,102145.56
2022-10-11T15:16:22.960Z,102139.69
2022-10-11T15:18:55.014Z,102140.94
2022-10-11T15:21:30.262Z,102145.84
2022-10-11T15:23:57.195Z,102140.66
2022-10-11T15:26:29.165Z,102126.56
2022-10-11T15:28:57.697Z,102137.50
2022-10-11T15:31:24.605Z,102133.03
2022-10-11T15:33:54.275Z,102136.63
2022-10-11T15:36:22.862Z,102134.69
2022-10-11T15:38:52.294Z,102136.16
2022-10-11T15:41:20.106Z,102145.63
2022-10-11T15:43:50.596Z,102145.78
2022-10-11T15:46:25.079Z,102145.25
2022-10-11T15:48:54.628Z,102147.81
2022-10-11T15:51:21.541Z,102146.00
2022-10-11T15:53:51.397Z,102144.72
2022-10-11T15:56:19.558Z,102141.88
2022-10-11T15:58:46.528Z,102157.03
2022-10-11T16:01:18.113Z,102151.53
2022-10-11T16:03:49.649Z,102144.97
2022-10-11T16:06:18.382Z,102153.47
2022-10-11T16:08:48.066Z,102155.31
2022-10-11T16:11:15.050Z,102152.53
2022-10-11T16:13:47.598Z,102148.06
2022-10-11T16:16:14.462Z,102160.81
2022-10-11T16:18:41.309Z,102152.19
2022-10-11T16:21:15.422Z,102162.47
2022-10-11T16:23:44.714Z,102159.94
2022-10-11T16:26:16.316Z,102167.00
2022-10-11T16:28:43.900Z,102164.19
2022-10-11T16:31:20.739Z,102163.69
2022-10-11T16:33:47.901Z,102164.25
2022-10-11T16:36:40.066Z,102169.06
2022-10-11T16:39:18.300Z,102168.03
2022-10-11T16:41:46.102Z,102164.31
2022-10-11T16:44:16.759Z,102170.13
2022-10-11T16:46:48.247Z,102164.34
2022-10-11T16:49:20.138Z,102165.38
2022-10-11T16:51:47.187Z,102167.06
2022-10-11T16:54:20.427Z,102160.41
2022-10-11T16:56:50.309Z,102163.69
2022-10-11T16:59:17.558Z,102162.31
2022-10-11T17:01:45.182Z,102164.69
2022-10-11T17:04:13.056Z,102165.03
2022-10-11T17:06:41.343Z,102165.53
2022-10-11T17:09:11.887Z,102167.06
2022-10-11T17:11:44.278Z,102163.66
2022-10-11T17:14:14.532Z,102166.72
2022-10-11T17:16:41.710Z,102164.34
2022-10-11T17:19:13.769Z,102168.44
2022-10-11T17:21:43.675Z,102164.69
2022-10-11T17:24:12.788Z,102160.75
2022-10-11T17:26:39.646Z,102165.72
2022-10-11T17:29:06.580Z,102168.09
2022-10-11T17:31:33.508Z,102167.75
2022-10-11T17:34:00.904Z,102168.44
2022-10-11T17:36:36.139Z,102178.38
2022-10-11T17:39:10.118Z,102175.97
2022-10-11T17:41:38.142Z,102179.75
2022-10-11T17:44:05.498Z,102169.81
2022-10-11T17:46:32.832Z,102182.66
2022-10-11T17:49:01.915Z,102177.69
2022-10-11T17:51:32.082Z,102172.88
2022-10-11T17:53:58.982Z,102171.53
2022-10-11T17:56:32.422Z,102164.34
2022-10-11T17:59:06.635Z,102165.72
2022-10-11T18:01:36.097Z,102164.81
2022-10-11T18:04:06.231Z,102170.81
2022-10-11T18:06:39.432Z,102169.94
2022-10-11T18:09:07.215Z,102167.91
2022-10-11T18:11:34.367Z,102166.22
2022-10-11T18:14:01.690Z,102163.81
2022-10-11T18:16:30.380Z,102163.63
2022-10-11T18:18:58.590Z,102160.56
2022-10-11T18:21:31.199Z,102162.25
2022-10-11T18:24:11.433Z,102163.25
2022-10-11T18:26:41.362Z,102166.69
2022-10-11T18:29:08.799Z,102153.69
2022-10-11T18:31:35.825Z,102157.44
2022-10-11T18:34:06.694Z,102159.50
2022-10-11T18:36:36.637Z,102151.31
2022-10-11T18:39:10.443Z,102154.38
2022-10-11T18:41:39.274Z,102153.69
2022-10-11T18:44:09.264Z,102152.66
2022-10-11T18:46:38.685Z,102147.53
2022-10-11T18:49:07.757Z,102154.19
2022-10-11T18:51:40.479Z,102149.91
2022-10-11T18:54:10.083Z,102148.16
2022-10-11T18:56:39.644Z,102144.88
2022-10-11T18:59:07.165Z,102160.06
2022-10-11T19:01:44.918Z,102153.78
2022-10-11T19:04:18.661Z,102156.31
2022-10-11T19:06:48.622Z,102151.66
2022-10-11T19:09:26.088Z,102153.75
2022-10-11T19:11:55.639Z,102156.81
2022-10-11T19:14:30.764Z,102151.56
2022-10-11T19:16:58.184Z,102154.03
2022-10-11T19:19:29.762Z,102154.69
2022-10-11T19:21:56.765Z,102156.06
2022-10-11T19:24:27.428Z,102163.25
2022-10-11T19:27:02.065Z,102158.78
2022-10-11T19:29:30.461Z,102165.97
2022-10-11T19:32:03.527Z,102158.47
2022-10-11T19:34:31.655Z,102160.34
2022-10-11T19:37:01.019Z,102161.41
2022-10-11T19:39:29.537Z,102161.19
2022-10-11T19:41:56.551Z,102154.03
2022-10-11T19:44:34.466Z,102157.63
2022-10-11T19:47:05.354Z,102154.88
2022-10-11T19:49:32.802Z,102166.66
2022-10-11T19:52:01.056Z,102159.81
2022-10-11T19:54:28.275Z,102156.38
2022-10-11T19:56:55.160Z,102152.09
2022-10-11T19:59:22.034Z,102157.69
2022-10-11T20:01:52.767Z,102161.44
2022-10-11T20:07:11.451Z,102162.81
2022-10-11T20:09:38.337Z,102162.00
2022-10-11T20:12:05.691Z,102154.63
2022-10-11T20:14:37.203Z,102166.34
2022-10-11T20:17:04.074Z,102156.94
2022-10-11T20:19:31.571Z,102155.81
2022-10-11T20:22:01.888Z,102161.84
2022-10-11T20:24:34.226Z,102158.91
2022-10-11T20:27:05.501Z,102157.13
2022-10-11T20:29:32.804Z,102153.63
2022-10-11T20:31:59.713Z,102159.59
2022-10-11T20:34:29.096Z,102158.97
2022-10-11T20:36:55.918Z,102154.78
2022-10-11T20:39:23.690Z,102159.28
2022-10-11T20:41:50.609Z,102153.63
2022-10-11T20:44:17.904Z,102158.28
2022-10-11T20:46:47.143Z,102164.31
2022-10-11T20:49:19.926Z,102163.13
2022-10-11T20:51:46.949Z,102161.47
2022-10-11T20:54:13.922Z,102158.06
2022-10-11T20:56:41.191Z,102153.31
2022-10-11T20:59:13.429Z,102154.94
2022-10-11T21:01:46.220Z,102159.13
2022-10-11T21:04:21.802Z,102158.38
2022-10-11T21:06:48.941Z,102156.16
2022-10-11T21:09:19.097Z,102161.81
2022-10-11T21:11:48.530Z,102154.19
2022-10-11T21:14:15.551Z,102155.66
2022-10-11T21:16:42.400Z,102160.28
2022-10-11T21:19:15.292Z,102162.94
2022-10-11T21:21:42.921Z,102166.50
2022-10-11T21:24:10.267Z,102168.75
2022-10-11T21:26:37.278Z,102164.09
2022-10-11T21:29:04.720Z,102172.91
2022-10-11T21:31:34.374Z,102169.53
2022-10-11T21:34:02.370Z,102168.13
2022-10-11T21:36:33.795Z,102167.38
2022-10-11T21:39:00.686Z,102172.44
2022-10-11T21:41:31.135Z,102164.63
2022-10-11T21:44:01.308Z,102166.03
2022-10-11T21:47:04.868Z,102168.69
2022-10-11T21:49:23.349Z,102177.09
2022-10-11T21:51:50.391Z,102171.66
2022-10-11T21:54:19.985Z,102163.69
2022-10-11T21:56:46.944Z,102177.09
2022-10-11T21:59:18.477Z,102177.19
2022-10-11T22:01:45.428Z,102176.09
2022-10-11T22:04:12.739Z,102167.22
2022-10-11T22:06:40.011Z,102169.22
2022-10-11T22:09:08.747Z,102166.97
2022-10-11T22:11:38.429Z,102165.25
2022-10-11T22:14:05.323Z,102171.72
2022-10-11T22:16:36.020Z,102171.34
2022-10-11T22:19:03.365Z,102167.91
2022-10-11T22:21:32.471Z,102178.03
2022-10-11T22:23:59.646Z,102174.13
2022-10-11T22:26:34.666Z,102176.88
2022-10-11T22:29:01.791Z,102164.88
2022-10-11T22:31:29.800Z,102180.53
2022-10-11T22:33:59.715Z,102178.63
2022-10-11T22:36:28.170Z,102171.31
2022-10-11T22:38:54.976Z,102172.53
2022-10-11T22:41:24.084Z,102175.91
2022-10-11T22:43:53.001Z,102176.06
2022-10-11T22:46:19.885Z,102189.69
2022-10-11T22:48:46.757Z,102175.97
2022-10-11T22:51:14.407Z,102170.41
2022-10-11T22:53:41.339Z,102180.81
2022-10-11T22:56:08.923Z,102182.22
2022-10-11T22:58:38.362Z,102180.81
2022-10-11T23:01:14.933Z,102176.78
2022-10-11T23:03:42.570Z,102184.81
2022-10-11T23:06:12.797Z,102178.44
2022-10-11T23:08:39.661Z,102188.63
2022-10-11T23:11:10.495Z,102191.94
2022-10-11T23:13:37.608Z,102181.34
2022-10-11T23:16:10.654Z,102183.28
2022-10-11T23:18:40.247Z,102189.69
2022-10-11T23:21:07.990Z,102186.09
2022-10-11T23:23:39.578Z,102186.06
2022-10-11T23:26:15.489Z,102192.75
2022-10-11T23:28:46.373Z,102187.84
2022-10-11T23:31:17.209Z,102195.91
2022-10-11T23:33:47.904Z,102197.19
2022-10-11T23:36:24.018Z,102197.38
2022-10-11T23:38:58.606Z,102193.63
2022-10-11T23:41:28.096Z,102188.72
2022-10-11T23:43:55.153Z,102188.59
2022-10-11T23:46:24.884Z,102194.47
2022-10-11T23:48:56.579Z,102198.81
2022-10-11T23:51:23.443Z,102193.09
2022-10-11T23:53:53.083Z,102197.91
2022-10-11T23:56:20.052Z,102190.75
2022-10-11T23:58:49.111Z,102200.81
